Terminal Aerodrome Forecast
Issued by NWS Shreveport, LA

Home | Current Version | Previous Version | Text Only | Print | Product List | Glossary On
Versions: 1 2 3 4 5 6 7 8 9 10 11 12 13 14 15 16 17 18
269
FTUS44 KSHV 231743
TAFMLU
TAF
KMLU 231743Z 2318/2418 03005KT P6SM VCSH BKN040
     FM232300 05004KT P6SM VCTS BKN050CB
     FM240300 03004KT P6SM SCT070 BKN150 BKN250
     FM240600 04003KT P6SM SCT150 BKN250
     FM241600 04007KT P6SM SCT030 BKN250=

USA.gov is the U.S. government's official web portal to all federal, state and local government web resources and services.